sensor_id;sensor_type;location;lat;lon;timestamp;pressure;altitude;pressure_sealevel;temperature;humidity
40994;BME280;26722;43.212;27.932;2023-05-01T00:00:08;55090.75;;;-146.72;57.63
40994;BME280;26722;43.212;27.932;2023-05-01T00:02:34;55103.44;;;-146.72;57.64
40994;BME280;26722;43.212;27.932;2023-05-01T00:05:00;55109.75;;;-146.72;57.61
40994;BME280;26722;43.212;27.932;2023-05-01T00:07:26;55086.53;;;-146.72;57.43
40994;BME280;26722;43.212;27.932;2023-05-01T00:09:55;55105.53;;;-146.72;56.89
40994;BME280;26722;43.212;27.932;2023-05-01T00:12:21;55105.53;;;-146.72;56.36
40994;BME280;26722;43.212;27.932;2023-05-01T00:14:46;55099.19;;;-146.72;56.58
40994;BME280;26722;43.212;27.932;2023-05-01T00:17:11;55097.09;;;-146.72;56.99
40994;BME280;26722;43.212;27.932;2023-05-01T00:19:37;55103.44;;;-146.72;57.13
40994;BME280;26722;43.212;27.932;2023-05-01T00:22:02;55094.97;;;-146.72;55.90
40994;BME280;26722;43.212;27.932;2023-05-01T00:24:28;55103.44;;;-146.72;56.27
40994;BME280;26722;43.212;27.932;2023-05-01T00:26:53;55116.09;;;-146.72;56.13
40994;BME280;26722;43.212;27.932;2023-05-01T00:29:18;55086.53;;;-146.72;56.13
40994;BME280;26722;43.212;27.932;2023-05-01T00:31:44;55094.97;;;-146.72;55.96
40994;BME280;26722;43.212;27.932;2023-05-01T00:34:10;55088.66;;;-146.72;55.64
40994;BME280;26722;43.212;27.932;2023-05-01T00:36:36;55103.44;;;-146.72;55.34
40994;BME280;26722;43.212;27.932;2023-05-01T00:39:01;55090.75;;;-146.72;55.42
40994;BME280;26722;43.212;27.932;2023-05-01T00:41:27;55090.75;;;-146.72;54.92
40994;BME280;26722;43.212;27.932;2023-05-01T00:43:52;55097.09;;;-146.72;54.62
40994;BME280;26722;43.212;27.932;2023-05-01T00:46:18;55094.97;;;-146.72;54.63
40994;BME280;26722;43.212;27.932;2023-05-01T00:48:44;55099.19;;;-146.72;54.20
40994;BME280;26722;43.212;27.932;2023-05-01T00:51:11;55107.66;;;-146.72;54.10
40994;BME280;26722;43.212;27.932;2023-05-01T00:53:39;55101.31;;;-146.72;53.86
40994;BME280;26722;43.212;27.932;2023-05-01T00:56:06;55090.75;;;-146.72;53.44
40994;BME280;26722;43.212;27.932;2023-05-01T00:58:32;55090.75;;;-146.72;51.04
40994;BME280;26722;43.212;27.932;2023-05-01T01:00:58;55088.66;;;-146.72;48.82
40994;BME280;26722;43.212;27.932;2023-05-01T01:03:24;55084.44;;;-146.72;47.80
40994;BME280;26722;43.212;27.932;2023-05-01T01:05:57;55078.09;;;-146.72;47.17
40994;BME280;26722;43.212;27.932;2023-05-01T01:08:29;55073.88;;;-146.72;46.78
40994;BME280;26722;43.212;27.932;2023-05-01T01:13:55;55063.31;;;-146.72;46.27
40994;BME280;26722;43.212;27.932;2023-05-01T01:19:17;55048.53;;;-146.72;45.60
40994;BME280;26722;43.212;27.932;2023-05-01T01:22:01;55052.75;;;-146.72;46.30
40994;BME280;26722;43.212;27.932;2023-05-01T01:34:53;55069.66;;;-146.72;47.58
40994;BME280;26722;43.212;27.932;2023-05-01T01:37:23;55078.09;;;-146.72;48.32
40994;BME280;26722;43.212;27.932;2023-05-01T01:40:01;55078.09;;;-146.72;48.95
40994;BME280;26722;43.212;27.932;2023-05-01T01:42:39;55065.41;;;-146.72;48.91
40994;BME280;26722;43.212;27.932;2023-05-01T01:45:08;55063.31;;;-146.72;47.82
40994;BME280;26722;43.212;27.932;2023-05-01T01:47:36;55069.66;;;-146.72;47.61
40994;BME280;26722;43.212;27.932;2023-05-01T01:50:05;55052.75;;;-146.72;46.50
40994;BME280;26722;43.212;27.932;2023-05-01T01:52:31;55065.41;;;-146.72;45.90
40994;BME280;26722;43.212;27.932;2023-05-01T01:54:59;55054.88;;;-146.72;45.07
40994;BME280;26722;43.212;27.932;2023-05-01T01:57:29;55061.19;;;-146.72;44.40
40994;BME280;26722;43.212;27.932;2023-05-01T01:59:54;55065.41;;;-146.72;44.35
40994;BME280;26722;43.212;27.932;2023-05-01T02:02:20;55052.75;;;-146.72;44.22
40994;BME280;26722;43.212;27.932;2023-05-01T02:04:49;55042.19;;;-146.72;44.67
40994;BME280;26722;43.212;27.932;2023-05-01T02:07:15;55044.31;;;-146.72;45.17
40994;BME280;26722;43.212;27.932;2023-05-01T02:09:41;55042.19;;;-146.72;44.75
40994;BME280;26722;43.212;27.932;2023-05-01T02:12:08;55048.53;;;-146.72;44.50
40994;BME280;26722;43.212;27.932;2023-05-01T02:14:35;55065.41;;;-146.72;43.48
40994;BME280;26722;43.212;27.932;2023-05-01T02:17:01;55069.66;;;-146.72;42.91
40994;BME280;26722;43.212;27.932;2023-05-01T02:19:28;55044.31;;;-146.72;42.41
40994;BME280;26722;43.212;27.932;2023-05-01T02:21:56;55037.97;;;-146.72;41.92
40994;BME280;26722;43.212;27.932;2023-05-01T02:24:22;55037.97;;;-146.72;40.89
40994;BME280;26722;43.212;27.932;2023-05-01T02:26:53;55061.19;;;-146.72;40.26
40994;BME280;26722;43.212;27.932;2023-05-01T02:29:19;55044.31;;;-146.72;39.53
40994;BME280;26722;43.212;27.932;2023-05-01T02:31:44;55037.97;;;-146.72;40.34
40994;BME280;26722;43.212;27.932;2023-05-01T02:34:09;55033.75;;;-146.72;39.81
40994;BME280;26722;43.212;27.932;2023-05-01T02:36:35;55033.75;;;-146.72;38.70
40994;BME280;26722;43.212;27.932;2023-05-01T02:39:00;55035.88;;;-146.72;38.24
40994;BME280;26722;43.212;27.932;2023-05-01T02:41:26;55044.31;;;-146.72;36.95
40994;BME280;26722;43.212;27.932;2023-05-01T02:43:53;55035.88;;;-146.72;35.62
40994;BME280;26722;43.212;27.932;2023-05-01T02:46:20;55027.41;;;-146.72;35.25
40994;BME280;26722;43.212;27.932;2023-05-01T02:48:48;55014.75;;;-146.72;34.78
40994;BME280;26722;43.212;27.932;2023-05-01T02:51:13;55027.41;;;-146.72;34.16
40994;BME280;26722;43.212;27.932;2023-05-01T02:53:39;55031.66;;;-146.72;34.21
40994;BME280;26722;43.212;27.932;2023-05-01T02:56:06;55018.97;;;-146.72;35.66
40994;BME280;26722;43.212;27.932;2023-05-01T02:58:33;55048.53;;;-146.72;36.39
40994;BME280;26722;43.212;27.932;2023-05-01T03:00:58;55016.88;;;-146.72;36.55
40994;BME280;26722;43.212;27.932;2023-05-01T03:03:23;55037.97;;;-146.72;36.10
40994;BME280;26722;43.212;27.932;2023-05-01T03:05:49;55042.19;;;-146.72;37.59
40994;BME280;26722;43.212;27.932;2023-05-01T03:08:15;55027.41;;;-146.72;37.36
40994;BME280;26722;43.212;27.932;2023-05-01T03:10:41;55052.75;;;-146.72;37.70
40994;BME280;26722;43.212;27.932;2023-05-01T03:13:07;55029.53;;;-146.72;38.12
40994;BME280;26722;43.212;27.932;2023-05-01T03:15:32;55031.66;;;-146.72;37.24
40994;BME280;26722;43.212;27.932;2023-05-01T03:17:58;55044.31;;;-146.72;37.77
40994;BME280;26722;43.212;27.932;2023-05-01T03:20:23;55031.66;;;-146.72;37.17
40994;BME280;26722;43.212;27.932;2023-05-01T03:22:48;55027.41;;;-146.72;36.99
40994;BME280;26722;43.212;27.932;2023-05-01T03:25:14;55046.41;;;-146.72;37.13
40994;BME280;26722;43.212;27.932;2023-05-01T03:27:39;55048.53;;;-146.72;36.90
40994;BME280;26722;43.212;27.932;2023-05-01T03:30:05;55035.88;;;-146.72;36.54
40994;BME280;26722;43.212;27.932;2023-05-01T03:32:30;55027.41;;;-146.72;36.03
40994;BME280;26722;43.212;27.932;2023-05-01T03:34:56;55018.97;;;-146.72;36.40
40994;BME280;26722;43.212;27.932;2023-05-01T03:37:21;55042.19;;;-146.72;35.95
40994;BME280;26722;43.212;27.932;2023-05-01T03:39:46;55027.41;;;-146.72;36.13
40994;BME280;26722;43.212;27.932;2023-05-01T03:42:12;55014.75;;;-146.72;35.47
40994;BME280;26722;43.212;27.932;2023-05-01T03:44:37;55018.97;;;-146.72;36.03
40994;BME280;26722;43.212;27.932;2023-05-01T03:47:02;55025.31;;;-146.72;36.32
40994;BME280;26722;43.212;27.932;2023-05-01T03:49:27;55027.41;;;-146.72;36.68
40994;BME280;26722;43.212;27.932;2023-05-01T03:51:53;55027.41;;;-146.72;36.80
40994;BME280;26722;43.212;27.932;2023-05-01T03:54:18;55016.88;;;-146.72;37.02
40994;BME280;26722;43.212;27.932;2023-05-01T03:56:43;55035.88;;;-146.72;37.05
40994;BME280;26722;43.212;27.932;2023-05-01T03:59:09;55004.19;;;-146.72;37.46
40994;BME280;26722;43.212;27.932;2023-05-01T04:01:34;55031.66;;;-146.72;37.56
40994;BME280;26722;43.212;27.932;2023-05-01T04:03:59;55044.31;;;-146.72;37.55
40994;BME280;26722;43.212;27.932;2023-05-01T04:06:26;55023.19;;;-146.72;37.80
40994;BME280;26722;43.212;27.932;2023-05-01T04:08:52;55010.53;;;-146.72;37.16
40994;BME280;26722;43.212;27.932;2023-05-01T04:11:17;55014.75;;;-146.72;37.44
40994;BME280;26722;43.212;27.932;2023-05-01T04:13:42;55023.19;;;-146.72;37.17
40994;BME280;26722;43.212;27.932;2023-05-01T04:16:07;55014.75;;;-146.72;38.28
40994;BME280;26722;43.212;27.932;2023-05-01T04:18:33;55014.75;;;-146.72;40.22
40994;BME280;26722;43.212;27.932;2023-05-01T04:20:58;55010.53;;;-146.72;40.58
40994;BME280;26722;43.212;27.932;2023-05-01T04:23:23;55010.53;;;-146.72;40.98
40994;BME280;26722;43.212;27.932;2023-05-01T04:25:49;55029.53;;;-146.72;40.49
40994;BME280;26722;43.212;27.932;2023-05-01T04:28:14;55016.88;;;-146.72;41.08
40994;BME280;26722;43.212;27.932;2023-05-01T04:30:39;54997.88;;;-146.72;41.99
40994;BME280;26722;43.212;27.932;2023-05-01T04:33:05;55006.31;;;-146.72;42.37
40994;BME280;26722;43.212;27.932;2023-05-01T04:35:37;55025.31;;;-146.72;42.50
40994;BME280;26722;43.212;27.932;2023-05-01T04:38:03;55010.53;;;-146.72;43.39
40994;BME280;26722;43.212;27.932;2023-05-01T04:40:28;55029.53;;;-146.72;44.35
40994;BME280;26722;43.212;27.932;2023-05-01T04:42:53;55006.31;;;-146.72;44.94
40994;BME280;26722;43.212;27.932;2023-05-01T04:45:20;55018.97;;;-146.72;45.12
40994;BME280;26722;43.212;27.932;2023-05-01T04:47:45;55048.53;;;-146.72;44.79
40994;BME280;26722;43.212;27.932;2023-05-01T04:50:10;55035.88;;;-146.72;45.17
40994;BME280;26722;43.212;27.932;2023-05-01T04:52:36;55035.88;;;-146.72;44.68
40994;BME280;26722;43.212;27.932;2023-05-01T04:55:01;55037.97;;;-146.72;46.06
40994;BME280;26722;43.212;27.932;2023-05-01T04:57:27;55056.97;;;-146.72;47.06
40994;BME280;26722;43.212;27.932;2023-05-01T04:59:53;55046.41;;;-146.72;49.07
40994;BME280;26722;43.212;27.932;2023-05-01T05:02:18;55061.19;;;-146.72;50.44
40994;BME280;26722;43.212;27.932;2023-05-01T05:04:43;55059.09;;;-146.72;50.77
40994;BME280;26722;43.212;27.932;2023-05-01T05:07:09;55056.97;;;-146.72;51.50
40994;BME280;26722;43.212;27.932;2023-05-01T05:09:34;55065.41;;;-146.72;51.88
40994;BME280;26722;43.212;27.932;2023-05-01T05:11:59;55054.88;;;-146.72;52.44
40994;BME280;26722;43.212;27.932;2023-05-01T05:14:25;55065.41;;;-146.72;52.58
40994;BME280;26722;43.212;27.932;2023-05-01T05:16:50;55048.53;;;-146.72;51.19
40994;BME280;26722;43.212;27.932;2023-05-01T05:19:15;55037.97;;;-146.72;50.06
40994;BME280;26722;43.212;27.932;2023-05-01T05:21:41;55023.19;;;-146.72;49.25
40994;BME280;26722;43.212;27.932;2023-05-01T05:24:06;55031.66;;;-146.72;48.51
40994;BME280;26722;43.212;27.932;2023-05-01T05:26:31;55035.88;;;-146.72;48.38
40994;BME280;26722;43.212;27.932;2023-05-01T05:28:57;55010.53;;;-146.72;47.87
40994;BME280;26722;43.212;27.932;2023-05-01T05:31:22;55004.19;;;-146.72;46.77
40994;BME280;26722;43.212;27.932;2023-05-01T05:33:47;55002.09;;;-146.72;45.85
40994;BME280;26722;43.212;27.932;2023-05-01T05:36:13;55006.31;;;-146.72;45.61
40994;BME280;26722;43.212;27.932;2023-05-01T05:38:38;54991.53;;;-146.72;44.63
40994;BME280;26722;43.212;27.932;2023-05-01T05:41:04;54995.75;;;-146.72;44.28
40994;BME280;26722;43.212;27.932;2023-05-01T05:43:29;54976.75;;;-146.72;42.06
40994;BME280;26722;43.212;27.932;2023-05-01T05:45:55;54999.97;;;-146.72;41.76
40994;BME280;26722;43.212;27.932;2023-05-01T05:48:20;54985.19;;;-146.72;40.40
40994;BME280;26722;43.212;27.932;2023-05-01T05:50:46;54993.63;;;-146.72;40.37
40994;BME280;26722;43.212;27.932;2023-05-01T05:53:11;54978.88;;;-146.72;39.48
40994;BME280;26722;43.212;27.932;2023-05-01T05:55:37;54972.53;;;-146.72;39.64
40994;BME280;26722;43.212;27.932;2023-05-01T05:58:02;54964.09;;;-146.72;39.04
40994;BME280;26722;43.212;27.932;2023-05-01T06:00:28;54978.88;;;-146.72;38.21
40994;BME280;26722;43.212;27.932;2023-05-01T06:02:53;54989.41;;;-146.72;38.11
40994;BME280;26722;43.212;27.932;2023-05-01T06:05:18;54964.09;;;-146.72;37.59
40994;BME280;26722;43.212;27.932;2023-05-01T06:07:44;54953.53;;;-146.72;37.77
40994;BME280;26722;43.212;27.932;2023-05-01T06:10:09;54953.53;;;-146.72;37.64
40994;BME280;26722;43.212;27.932;2023-05-01T06:12:35;54949.31;;;-146.72;36.76
40994;BME280;26722;43.212;27.932;2023-05-01T06:15:02;54951.41;;;-146.72;35.99
40994;BME280;26722;43.212;27.932;2023-05-01T06:17:28;54940.88;;;-146.72;35.59
40994;BME280;26722;43.212;27.932;2023-05-01T06:19:53;54926.09;;;-146.72;35.61
40994;BME280;26722;43.212;27.932;2023-05-01T06:22:19;54930.31;;;-146.72;35.53
40994;BME280;26722;43.212;27.932;2023-05-01T06:24:44;54942.97;;;-146.72;36.05
40994;BME280;26722;43.212;27.932;2023-05-01T06:27:10;54934.53;;;-146.72;35.41
40994;BME280;26722;43.212;27.932;2023-05-01T06:29:36;54932.41;;;-146.72;35.25
40994;BME280;26722;43.212;27.932;2023-05-01T06:32:01;54913.41;;;-146.72;34.87
40994;BME280;26722;43.212;27.932;2023-05-01T06:34:27;54923.97;;;-146.72;34.54
40994;BME280;26722;43.212;27.932;2023-05-01T06:36:52;54917.63;;;-146.72;34.01
40994;BME280;26722;43.212;27.932;2023-05-01T06:39:17;54913.41;;;-146.72;33.20
40994;BME280;26722;43.212;27.932;2023-05-01T06:41:46;54917.63;;;-146.72;32.31
40994;BME280;26722;43.212;27.932;2023-05-01T06:44:15;54930.31;;;-146.72;32.01
40994;BME280;26722;43.212;27.932;2023-05-01T06:46:41;54921.88;;;-146.72;32.07
40994;BME280;26722;43.212;27.932;2023-05-01T06:49:06;54917.63;;;-146.72;30.68
40994;BME280;26722;43.212;27.932;2023-05-01T06:51:32;54904.97;;;-146.72;30.38
40994;BME280;26722;43.212;27.932;2023-05-01T06:53:57;54923.97;;;-146.72;28.69
40994;BME280;26722;43.212;27.932;2023-05-01T06:56:22;54926.09;;;-146.72;28.79
40994;BME280;26722;43.212;27.932;2023-05-01T06:58:48;54917.63;;;-146.72;29.28
40994;BME280;26722;43.212;27.932;2023-05-01T07:01:13;54917.63;;;-146.72;29.13
40994;BME280;26722;43.212;27.932;2023-05-01T07:03:38;54915.53;;;-146.72;29.29
40994;BME280;26722;43.212;27.932;2023-05-01T07:06:03;54913.41;;;-146.72;29.31
40994;BME280;26722;43.212;27.932;2023-05-01T07:08:29;54928.19;;;-146.72;29.24
40994;BME280;26722;43.212;27.932;2023-05-01T07:10:55;54921.88;;;-146.72;28.89
40994;BME280;26722;43.212;27.932;2023-05-01T07:13:20;54921.88;;;-146.72;29.29
40994;BME280;26722;43.212;27.932;2023-05-01T07:15:46;54932.41;;;-146.72;29.19
40994;BME280;26722;43.212;27.932;2023-05-01T07:18:11;54909.19;;;-146.72;28.53
40994;BME280;26722;43.212;27.932;2023-05-01T07:20:37;54917.63;;;-146.72;29.16
40994;BME280;26722;43.212;27.932;2023-05-01T07:23:02;54917.63;;;-146.72;28.50
40994;BME280;26722;43.212;27.932;2023-05-01T07:25:28;54911.31;;;-146.72;27.73
40994;BME280;26722;43.212;27.932;2023-05-01T07:27:54;54915.53;;;-146.72;28.03
40994;BME280;26722;43.212;27.932;2023-05-01T07:30:20;54921.88;;;-146.72;28.14
40994;BME280;26722;43.212;27.932;2023-05-01T07:32:45;54909.19;;;-146.72;28.47
40994;BME280;26722;43.212;27.932;2023-05-01T07:35:11;54913.41;;;-146.72;29.24
40994;BME280;26722;43.212;27.932;2023-05-01T07:37:36;54917.63;;;-146.72;29.84
40994;BME280;26722;43.212;27.932;2023-05-01T07:40:01;54917.63;;;-146.72;28.57
40994;BME280;26722;43.212;27.932;2023-05-01T07:42:27;54913.41;;;-146.72;28.05
40994;BME280;26722;43.212;27.932;2023-05-01T07:44:52;54909.19;;;-146.72;28.19
40994;BME280;26722;43.212;27.932;2023-05-01T07:47:18;54917.63;;;-146.72;28.22
40994;BME280;26722;43.212;27.932;2023-05-01T07:49:43;54907.09;;;-146.72;27.84
40994;BME280;26722;43.212;27.932;2023-05-01T07:52:08;54915.53;;;-146.72;27.32
40994;BME280;26722;43.212;27.932;2023-05-01T07:54:35;54917.63;;;-146.72;27.33
40994;BME280;26722;43.212;27.932;2023-05-01T07:57:00;54896.53;;;-146.72;27.84
40994;BME280;26722;43.212;27.932;2023-05-01T07:59:28;54907.09;;;-146.72;27.66
40994;BME280;26722;43.212;27.932;2023-05-01T08:01:54;54904.97;;;-146.72;27.28
40994;BME280;26722;43.212;27.932;2023-05-01T08:04:20;54894.41;;;-146.72;27.39
40994;BME280;26722;43.212;27.932;2023-05-01T08:06:49;54885.97;;;-146.72;27.78
40994;BME280;26722;43.212;27.932;2023-05-01T08:09:15;54917.63;;;-146.72;26.73
40994;BME280;26722;43.212;27.932;2023-05-01T08:11:41;54877.53;;;-146.72;26.67
40994;BME280;26722;43.212;27.932;2023-05-01T08:14:06;54900.75;;;-146.72;27.14
40994;BME280;26722;43.212;27.932;2023-05-01T08:16:32;54896.53;;;-146.72;27.55
40994;BME280;26722;43.212;27.932;2023-05-01T08:18:57;54913.41;;;-146.72;27.55
40994;BME280;26722;43.212;27.932;2023-05-01T08:21:23;54900.75;;;-146.72;27.63
40994;BME280;26722;43.212;27.932;2023-05-01T08:23:48;54909.19;;;-146.72;27.98
40994;BME280;26722;43.212;27.932;2023-05-01T08:26:15;54900.75;;;-146.72;28.10
40994;BME280;26722;43.212;27.932;2023-05-01T08:28:40;54896.53;;;-146.72;28.85
40994;BME280;26722;43.212;27.932;2023-05-01T08:31:06;54902.84;;;-146.72;29.34
40994;BME280;26722;43.212;27.932;2023-05-01T08:33:31;54904.97;;;-146.72;28.75
40994;BME280;26722;43.212;27.932;2023-05-01T08:35:56;54900.75;;;-146.72;28.54
40994;BME280;26722;43.212;27.932;2023-05-01T08:38:22;54909.19;;;-146.72;27.71
40994;BME280;26722;43.212;27.932;2023-05-01T08:40:50;54904.97;;;-146.72;27.90
40994;BME280;26722;43.212;27.932;2023-05-01T08:43:16;54898.63;;;-146.72;28.25
40994;BME280;26722;43.212;27.932;2023-05-01T08:45:41;54904.97;;;-146.72;27.63
40994;BME280;26722;43.212;27.932;2023-05-01T08:48:07;54915.53;;;-146.72;28.41
40994;BME280;26722;43.212;27.932;2023-05-01T08:50:34;54913.41;;;-146.72;28.57
40994;BME280;26722;43.212;27.932;2023-05-01T08:53:02;54890.19;;;-146.72;28.26
40994;BME280;26722;43.212;27.932;2023-05-01T08:55:29;54911.31;;;-146.72;28.38
40994;BME280;26722;43.212;27.932;2023-05-01T08:57:55;54904.97;;;-146.72;27.68
40994;BME280;26722;43.212;27.932;2023-05-01T09:00:21;54913.41;;;-146.72;27.44
40994;BME280;26722;43.212;27.932;2023-05-01T09:02:48;54890.19;;;-146.72;27.83
40994;BME280;26722;43.212;27.932;2023-05-01T09:05:17;54911.31;;;-146.72;27.36
40994;BME280;26722;43.212;27.932;2023-05-01T09:07:43;54904.97;;;-146.72;27.55
40994;BME280;26722;43.212;27.932;2023-05-01T09:10:14;54892.31;;;-146.72;27.58
40994;BME280;26722;43.212;27.932;2023-05-01T09:12:40;54888.09;;;-146.72;27.91
40994;BME280;26722;43.212;27.932;2023-05-01T09:15:06;54879.63;;;-146.72;27.48
40994;BME280;26722;43.212;27.932;2023-05-01T09:17:31;54894.41;;;-146.72;27.61
40994;BME280;26722;43.212;27.932;2023-05-01T09:19:57;54900.75;;;-146.72;26.96
40994;BME280;26722;43.212;27.932;2023-05-01T09:22:23;54871.19;;;-146.72;27.37
40994;BME280;26722;43.212;27.932;2023-05-01T09:24:48;54883.84;;;-146.72;27.27
40994;BME280;26722;43.212;27.932;2023-05-01T09:27:13;54883.84;;;-146.72;27.04
40994;BME280;26722;43.212;27.932;2023-05-01T09:32:17;54892.31;;;-146.72;26.83
40994;BME280;26722;43.212;27.932;2023-05-01T09:34:44;54881.75;;;-146.72;27.12
40994;BME280;26722;43.212;27.932;2023-05-01T09:37:26;54877.53;;;-146.72;27.05
40994;BME280;26722;43.212;27.932;2023-05-01T09:42:26;54871.19;;;-146.72;27.75
40994;BME280;26722;43.212;27.932;2023-05-01T09:44:51;54883.84;;;-146.72;26.65
40994;BME280;26722;43.212;27.932;2023-05-01T09:47:20;54860.63;;;-146.72;27.09
40994;BME280;26722;43.212;27.932;2023-05-01T09:49:48;54871.19;;;-146.72;27.11
40994;BME280;26722;43.212;27.932;2023-05-01T09:52:14;54879.63;;;-146.72;26.66
40994;BME280;26722;43.212;27.932;2023-05-01T09:54:39;54871.19;;;-146.72;26.41
40994;BME280;26722;43.212;27.932;2023-05-01T09:57:05;54877.53;;;-146.72;26.64
40994;BME280;26722;43.212;27.932;2023-05-01T09:59:31;54879.63;;;-146.72;27.36
40994;BME280;26722;43.212;27.932;2023-05-01T10:01:58;54888.09;;;-146.72;27.34
40994;BME280;26722;43.212;27.932;2023-05-01T10:04:30;54879.63;;;-146.72;27.34
40994;BME280;26722;43.212;27.932;2023-05-01T10:06:56;54875.41;;;-146.72;26.67
40994;BME280;26722;43.212;27.932;2023-05-01T10:09:28;54875.41;;;-146.72;26.58
40994;BME280;26722;43.212;27.932;2023-05-01T10:11:54;54879.63;;;-146.72;26.70
40994;BME280;26722;43.212;27.932;2023-05-01T10:14:21;54866.97;;;-146.72;26.41
40994;BME280;26722;43.212;27.932;2023-05-01T10:16:48;54856.41;;;-146.72;26.72
40994;BME280;26722;43.212;27.932;2023-05-01T10:19:13;54860.63;;;-146.72;26.68
40994;BME280;26722;43.212;27.932;2023-05-01T10:21:39;54860.63;;;-146.72;27.11
40994;BME280;26722;43.212;27.932;2023-05-01T10:24:04;54875.41;;;-146.72;26.85
40994;BME280;26722;43.212;27.932;2023-05-01T10:26:33;54854.31;;;-146.72;27.39
40994;BME280;26722;43.212;27.932;2023-05-01T10:28:59;54866.97;;;-146.72;27.78
40994;BME280;26722;43.212;27.932;2023-05-01T10:31:25;54866.97;;;-146.72;27.68
40994;BME280;26722;43.212;27.932;2023-05-01T10:33:52;54875.41;;;-146.72;28.11
40994;BME280;26722;43.212;27.932;2023-05-01T10:36:23;54883.84;;;-146.72;27.21
40994;BME280;26722;43.212;27.932;2023-05-01T10:38:49;54860.63;;;-146.72;27.68
40994;BME280;26722;43.212;27.932;2023-05-01T10:41:15;54866.97;;;-146.72;27.31
40994;BME280;26722;43.212;27.932;2023-05-01T10:43:42;54860.63;;;-146.72;27.04
40994;BME280;26722;43.212;27.932;2023-05-01T10:53:34;54881.75;;;-146.72;27.86
40994;BME280;26722;43.212;27.932;2023-05-01T10:56:00;54883.84;;;-146.72;27.85
40994;BME280;26722;43.212;27.932;2023-05-01T11:03:46;54881.75;;;-146.72;27.07
40994;BME280;26722;43.212;27.932;2023-05-01T11:06:12;54866.97;;;-146.72;27.15
40994;BME280;26722;43.212;27.932;2023-05-01T11:08:37;54879.63;;;-146.72;26.68
40994;BME280;26722;43.212;27.932;2023-05-01T11:21:33;54892.31;;;-146.72;28.05
40994;BME280;26722;43.212;27.932;2023-05-01T11:23:59;54869.09;;;-146.72;28.47
40994;BME280;26722;43.212;27.932;2023-05-01T11:26:24;54883.84;;;-146.72;28.13
40994;BME280;26722;43.212;27.932;2023-05-01T11:28:50;54885.97;;;-146.72;28.15
40994;BME280;26722;43.212;27.932;2023-05-01T11:31:18;54896.53;;;-146.72;27.92
40994;BME280;26722;43.212;27.932;2023-05-01T11:33:43;54875.41;;;-146.72;27.83
40994;BME280;26722;43.212;27.932;2023-05-01T11:36:08;54883.84;;;-146.72;27.53
40994;BME280;26722;43.212;27.932;2023-05-01T11:38:34;54894.41;;;-146.72;27.75
40994;BME280;26722;43.212;27.932;2023-05-01T11:41:00;54871.19;;;-146.72;28.32
40994;BME280;26722;43.212;27.932;2023-05-01T11:43:25;54890.19;;;-146.72;27.09
40994;BME280;26722;43.212;27.932;2023-05-01T11:45:51;54854.31;;;-146.72;27.17
40994;BME280;26722;43.212;27.932;2023-05-01T11:48:19;54866.97;;;-146.72;27.27
40994;BME280;26722;43.212;27.932;2023-05-01T11:50:45;54858.53;;;-146.72;27.15
40994;BME280;26722;43.212;27.932;2023-05-01T11:53:11;54854.31;;;-146.72;26.13
40994;BME280;26722;43.212;27.932;2023-05-01T11:55:37;54866.97;;;-146.72;26.79
40994;BME280;26722;43.212;27.932;2023-05-01T11:58:02;54871.19;;;-146.72;26.88
40994;BME280;26722;43.212;27.932;2023-05-01T12:00:32;54860.63;;;-146.72;26.90
40994;BME280;26722;43.212;27.932;2023-05-01T12:03:05;54866.97;;;-146.72;27.02
40994;BME280;26722;43.212;27.932;2023-05-01T12:05:31;54875.41;;;-146.72;26.91
40994;BME280;26722;43.212;27.932;2023-05-01T12:10:34;54877.53;;;-146.72;29.46
40994;BME280;26722;43.212;27.932;2023-05-01T12:13:00;54879.63;;;-146.72;30.08
40994;BME280;26722;43.212;27.932;2023-05-01T12:15:26;54879.63;;;-146.72;29.69
40994;BME280;26722;43.212;27.932;2023-05-01T12:17:52;54879.63;;;-146.72;32.62
40994;BME280;26722;43.212;27.932;2023-05-01T12:20:32;54892.31;;;-146.72;32.67
40994;BME280;26722;43.212;27.932;2023-05-01T12:22:57;54892.31;;;-146.72;33.52
40994;BME280;26722;43.212;27.932;2023-05-01T12:25:28;54892.31;;;-146.72;32.79
40994;BME280;26722;43.212;27.932;2023-05-01T12:27:53;54909.19;;;-146.72;32.80
40994;BME280;26722;43.212;27.932;2023-05-01T12:30:28;54911.31;;;-146.72;32.82
40994;BME280;26722;43.212;27.932;2023-05-01T12:32:54;54917.63;;;-146.72;32.61
40994;BME280;26722;43.212;27.932;2023-05-01T12:35:20;54909.19;;;-146.72;32.39
40994;BME280;26722;43.212;27.932;2023-05-01T12:37:45;54911.31;;;-146.72;32.29
40994;BME280;26722;43.212;27.932;2023-05-01T12:40:13;54896.53;;;-146.72;31.58
40994;BME280;26722;43.212;27.932;2023-05-01T12:42:39;54900.75;;;-146.72;31.15
40994;BME280;26722;43.212;27.932;2023-05-01T12:45:05;54885.97;;;-146.72;31.06
40994;BME280;26722;43.212;27.932;2023-05-01T12:47:37;54909.19;;;-146.72;31.31
40994;BME280;26722;43.212;27.932;2023-05-01T12:50:03;54907.09;;;-146.72;31.28
40994;BME280;26722;43.212;27.932;2023-05-01T12:52:28;54926.09;;;-146.72;31.92
40994;BME280;26722;43.212;27.932;2023-05-01T12:55:00;54915.53;;;-146.72;32.01
40994;BME280;26722;43.212;27.932;2023-05-01T12:57:26;54909.19;;;-146.72;32.67
40994;BME280;26722;43.212;27.932;2023-05-01T12:59:56;54923.97;;;-146.72;34.34
40994;BME280;26722;43.212;27.932;2023-05-01T13:02:27;54928.19;;;-146.72;34.90
40994;BME280;26722;43.212;27.932;2023-05-01T13:04:58;54934.53;;;-146.72;34.76
40994;BME280;26722;43.212;27.932;2023-05-01T13:07:29;54921.88;;;-146.72;35.38
40994;BME280;26722;43.212;27.932;2023-05-01T13:09:57;54934.53;;;-146.72;35.28
40994;BME280;26722;43.212;27.932;2023-05-01T13:12:24;54951.41;;;-146.72;36.47